Time;durP1;ratioP1;P1;durP2;ratioP2;P2;SDS_P1;SDS_P2;PMS_P1;PMS_P2;Temp;Humidity;BMP_temperature;BMP_pressure;BME280_temperature;BME280_humidity;BME280_pressure;Samples;Min_cycle;Max_cycle;Signal;HPM_P1;HPM_P2
2023/03/06 00:02:37;;;;;;;;;;;;;;;-3.38;70.25;99917.59;105326;1286;71615;-72
2023/03/06 00:05:23;;;;;;;;;;;;;;;-3.38;70.28;99917.22;105294;1286;68441;-72
2023/03/06 00:08:10;;;;;;;;;;;;;;;-3.40;70.26;99914.31;105446;1286;71379;-72
2023/03/06 00:10:56;;;;;;;;;;;;;;;-3.42;70.24;99917.14;105479;1286;62232;-72
2023/03/06 00:13:42;;;;;;;;;;;;;;;-3.41;70.32;99913.42;105498;1286;60422;-72
2023/03/06 00:16:28;;;;;;;;;;;;;;;-3.40;70.44;99915.32;105480;1285;72525;-72
2023/03/06 00:19:15;;;;;;;;;;;;;;;-3.40;70.36;99904.04;105401;1285;69036;-72
2023/03/06 00:22:02;;;;;;;;;;;;;;;-3.40;70.43;99902.69;105430;1286;71250;-72
2023/03/06 00:24:48;;;;;;;;;;;;;;;-3.37;70.51;99902.77;105461;1286;60544;-72
2023/03/06 00:27:34;;;;;;;;;;;;;;;-3.36;70.52;99900.27;105292;1286;60276;-72
2023/03/06 00:30:21;;;;;;;;;;;;;;;-3.34;70.54;99897.64;105489;1285;71930;-72
2023/03/06 00:33:07;;;;;;;;;;;;;;;-3.31;70.50;99895.69;105290;1286;68003;-72
2023/03/06 00:35:53;;;;;;;;;;;;;;;-3.30;70.47;99889.50;105408;1286;72269;-72
2023/03/06 00:38:39;;;;;;;;;;;;;;;-3.30;70.41;99885.11;105500;1286;60210;-73
2023/03/06 00:41:25;;;;;;;;;;;;;;;-3.31;70.51;99883.23;105535;1287;60226;-73
2023/03/06 00:44:12;;;;;;;;;;;;;;;-3.31;70.49;99879.52;105448;1286;73896;-72
2023/03/06 00:46:58;;;;;;;;;;;;;;;-3.29;70.51;99877.04;105390;1290;67439;-72
2023/03/06 00:49:44;;;;;;;;;;;;;;;-3.27;70.54;99871.54;105422;1288;73043;-72
2023/03/06 00:52:30;;;;;;;;;;;;;;;-3.26;70.56;99870.56;105407;1286;58511;-72
2023/03/06 00:55:16;;;;;;;;;;;;;;;-3.23;70.59;99867.09;105490;1286;60299;-72
2023/03/06 00:58:02;;;;;;;;;;;;;;;-3.22;70.60;99867.63;105487;1286;72440;-72
2023/03/06 01:00:48;;;;;;;;;;;;;;;-3.20;70.60;99867.67;105301;1285;68131;-72
2023/03/06 01:03:34;;;;;;;;;;;;;;;-3.19;70.66;99862.66;105477;1289;70769;-73
2023/03/06 01:06:20;;;;;;;;;;;;;;;-3.20;70.67;99858.09;105459;1285;60354;-73
2023/03/06 01:09:06;;;;;;;;;;;;;;;-3.20;70.65;99859.27;105311;1289;60322;-73
2023/03/06 01:11:52;;;;;;;;;;;;;;;-3.19;70.68;99858.10;105482;1286;73017;-73
2023/03/06 01:14:38;;;;;;;;;;;;;;;-3.19;70.77;99853.73;105292;1286;67500;-73
2023/03/06 01:17:24;;;;;;;;;;;;;;;-3.16;70.79;99850.60;105354;1286;72013;-73
2023/03/06 01:20:14;;;;;;;;;;;;;;;-3.15;70.87;99850.48;105431;1285;60927;-73
2023/03/06 01:23:00;;;;;;;;;;;;;;;-3.16;70.73;99847.41;105476;1286;59554;-73
2023/03/06 01:25:46;;;;;;;;;;;;;;;-3.17;70.76;99849.06;105464;1286;72281;-73
2023/03/06 01:28:36;;;;;;;;;;;;;;;-3.16;70.80;99843.69;105409;1286;68327;-73
2023/03/06 01:31:22;;;;;;;;;;;;;;;-3.16;70.87;99839.32;105465;1286;71798;-73
2023/03/06 01:34:08;;;;;;;;;;;;;;;-3.14;70.85;99837.50;105432;1285;60466;-73
2023/03/06 01:36:54;;;;;;;;;;;;;;;-3.15;70.82;99835.29;105467;1289;60303;-73
2023/03/06 01:39:40;;;;;;;;;;;;;;;-3.15;70.85;99830.06;105329;1289;72939;-73
2023/03/06 01:42:27;;;;;;;;;;;;;;;-3.15;70.87;99826.88;105463;1287;68010;-73
2023/03/06 01:45:33;;;;;;;;;;;;;;;-3.14;70.82;99830.08;105208;1286;73918;-72
2023/03/06 01:48:21;;;;;;;;;;;;;;;-3.16;70.80;99826.34;104687;1294;60581;-72
2023/03/06 01:51:07;;;;;;;;;;;;;;;-3.17;70.81;99824.63;104590;1295;60470;-72
2023/03/06 01:53:54;;;;;;;;;;;;;;;-3.18;70.96;99816.86;104740;1295;73544;-72
2023/03/06 01:56:43;;;;;;;;;;;;;;;-3.16;70.84;99817.55;104735;1295;67783;-72
2023/03/06 01:59:29;;;;;;;;;;;;;;;-3.17;70.89;99816.17;104811;1293;71451;-72
2023/03/06 02:02:15;;;;;;;;;;;;;;;-3.20;70.87;99817.30;104828;1293;61766;-72
2023/03/06 02:05:03;;;;;;;;;;;;;;;-3.21;70.76;99812.71;104746;1293;60859;-72
2023/03/06 02:07:50;;;;;;;;;;;;;;;-3.20;70.91;99810.90;104787;1294;73949;-72
2023/03/06 02:10:36;;;;;;;;;;;;;;;-3.22;70.75;99808.64;104840;1294;67384;-73
2023/03/06 02:13:23;;;;;;;;;;;;;;;-3.26;70.89;99802.81;104695;1293;74950;-73
2023/03/06 02:16:09;;;;;;;;;;;;;;;-3.26;70.93;99797.92;104831;1297;60212;-73
2023/03/06 02:18:57;;;;;;;;;;;;;;;-3.24;71.02;99799.14;104736;1293;60624;-73
2023/03/06 02:21:43;;;;;;;;;;;;;;;-3.22;71.03;99792.98;104823;1295;73768;-73
2023/03/06 02:24:29;;;;;;;;;;;;;;;-3.19;71.03;99792.89;104682;1295;68074;-73
2023/03/06 02:27:16;;;;;;;;;;;;;;;-3.17;71.03;99792.77;105480;1286;71325;-73
2023/03/06 02:30:06;;;;;;;;;;;;;;;-3.15;70.99;99787.77;105539;1286;60179;-73
2023/03/06 02:32:53;;;;;;;;;;;;;;;-3.13;71.05;99785.09;105640;1285;60456;-73
2023/03/06 02:35:41;;;;;;;;;;;;;;;-3.10;71.13;99784.99;105425;1286;73416;-73
2023/03/06 02:38:34;;;;;;;;;;;;;;;-3.08;71.10;99785.73;105645;1289;67246;-73
2023/03/06 02:41:20;;;;;;;;;;;;;;;-3.04;71.08;99786.34;105494;1285;71266;-74
2023/03/06 02:44:06;;;;;;;;;;;;;;;-3.02;71.13;99781.48;105602;1286;60675;-73
2023/03/06 02:46:52;;;;;;;;;;;;;;;-3.00;71.08;99779.85;105452;1285;60465;-73
2023/03/06 02:49:38;;;;;;;;;;;;;;;-3.00;71.14;99769.92;105355;1286;72792;-72
2023/03/06 02:52:24;;;;;;;;;;;;;;;-2.99;71.18;99768.41;105468;1286;70040;-73
2023/03/06 02:55:10;;;;;;;;;;;;;;;-2.96;71.31;99765.29;105058;1285;356714;-73
2023/03/06 02:57:56;;;;;;;;;;;;;;;-2.92;71.31;99766.23;105580;1284;60427;-73
2023/03/06 03:00:42;;;;;;;;;;;;;;;-2.87;71.37;99766.33;105458;1291;59515;-72
2023/03/06 03:03:28;;;;;;;;;;;;;;;-2.82;71.28;99762.58;105590;1289;75711;-72
2023/03/06 03:06:15;;;;;;;;;;;;;;;-2.81;71.30;99763.13;105514;1286;67124;-72
2023/03/06 03:09:01;;;;;;;;;;;;;;;-2.79;71.35;99761.66;105457;1286;71384;-72
2023/03/06 03:11:47;;;;;;;;;;;;;;;-2.75;71.40;99757.02;105462;1286;60743;-73
2023/03/06 03:14:33;;;;;;;;;;;;;;;-2.71;71.48;99753.40;105561;1285;60810;-73
2023/03/06 03:17:19;;;;;;;;;;;;;;;-2.68;71.53;99753.15;105565;1285;72444;-73
2023/03/06 03:20:06;;;;;;;;;;;;;;;-2.64;71.50;99751.04;105439;1285;66348;-73
2023/03/06 03:22:54;;;;;;;;;;;;;;;-2.62;71.52;99754.98;105438;1286;71986;-73
2023/03/06 03:25:40;;;;;;;;;;;;;;;-2.59;71.55;99752.14;105523;1288;60351;-73
2023/03/06 03:28:26;;;;;;;;;;;;;;;-2.56;71.59;99752.87;105547;1288;58739;-73
2023/03/06 03:31:12;;;;;;;;;;;;;;;-2.51;71.61;99747.58;105461;1285;72064;-73
2023/03/06 03:33:59;;;;;;;;;;;;;;;-2.48;71.70;99744.63;105560;1285;68364;-73
2023/03/06 03:36:45;;;;;;;;;;;;;;;-2.44;71.72;99746.23;105499;1286;74116;-73
2023/03/06 03:39:31;;;;;;;;;;;;;;;-2.40;71.72;99743.80;105584;1285;58300;-73
2023/03/06 03:42:17;;;;;;;;;;;;;;;-2.36;71.75;99734.25;105525;1285;60312;-73
2023/03/06 03:45:04;;;;;;;;;;;;;;;-2.33;71.85;99728.41;105541;1286;75084;-73
2023/03/06 03:47:50;;;;;;;;;;;;;;;-2.30;71.86;99729.16;105600;1283;67329;-73
2023/03/06 03:50:36;;;;;;;;;;;;;;;-2.27;71.85;99725.69;105573;1287;73362;-73
2023/03/06 03:53:22;;;;;;;;;;;;;;;-2.24;71.91;99725.91;105564;1285;60207;-73
2023/03/06 03:56:09;;;;;;;;;;;;;;;-2.20;71.90;99727.52;105543;1286;59205;-73
2023/03/06 03:58:55;;;;;;;;;;;;;;;-2.16;72.01;99727.92;105513;1289;75134;-73
2023/03/06 04:01:41;;;;;;;;;;;;;;;-2.14;72.00;99723.43;105603;1288;67213;-73
2023/03/06 04:04:27;;;;;;;;;;;;;;;-2.11;72.01;99720.96;105581;1286;72910;-73
2023/03/06 04:07:14;;;;;;;;;;;;;;;-2.07;72.04;99720.15;98244;1286;10002343;-73
2023/03/06 04:10:00;;;;;;;;;;;;;;;-2.05;72.07;99713.61;98243;1286;10002621;-73
2023/03/06 04:12:46;;;;;;;;;;;;;;;-2.01;72.09;99711.15;105522;1286;60440;-73
2023/03/06 04:15:32;;;;;;;;;;;;;;;-1.98;72.13;99708.52;105471;1286;60405;-73
2023/03/06 04:18:19;;;;;;;;;;;;;;;-1.95;72.14;99706.38;105576;1286;72390;-73
2023/03/06 04:21:05;;;;;;;;;;;;;;;-1.92;72.18;99705.92;105533;1286;67343;-73
2023/03/06 04:23:51;;;;;;;;;;;;;;;-1.89;72.13;99701.61;105539;1285;70691;-73
2023/03/06 04:26:38;;;;;;;;;;;;;;;-1.88;72.23;99700.77;105576;1285;59374;-73
2023/03/06 04:29:24;;;;;;;;;;;;;;;-1.86;72.23;99696.58;105635;1286;60325;-73
2023/03/06 04:32:10;;;;;;;;;;;;;;;-1.84;72.28;99694.44;105590;1286;72457;-73
2023/03/06 04:34:56;;;;;;;;;;;;;;;-1.82;72.32;99688.90;105544;1286;68572;-73
2023/03/06 04:37:42;;;;;;;;;;;;;;;-1.79;72.32;99686.59;105510;1286;73944;-73
2023/03/06 04:40:29;;;;;;;;;;;;;;;-1.75;72.41;99683.78;105540;1285;60465;-73
2023/03/06 04:43:16;;;;;;;;;;;;;;;-1.72;72.35;99681.98;105562;1286;60292;-73
2023/03/06 04:46:02;;;;;;;;;;;;;;;-1.70;72.34;99681.35;105497;1285;73388;-73
2023/03/06 04:48:48;;;;;;;;;;;;;;;-1.67;72.41;99676.52;105577;1286;70738;-73
2023/03/06 04:51:37;;;;;;;;;;;;;;;-1.64;72.47;99677.38;105508;1286;72126;-73
2023/03/06 04:54:23;;;;;;;;;;;;;;;-1.63;72.45;99674.55;105468;1286;59247;-73
2023/03/06 04:57:09;;;;;;;;;;;;;;;-1.60;72.45;99674.77;105541;1286;60351;-73
2023/03/06 04:59:55;;;;;;;;;;;;;;;-1.58;72.47;99672.61;105522;1286;74188;-73
2023/03/06 05:02:42;;;;;;;;;;;;;;;-1.56;72.51;99666.37;105576;1288;67203;-73
2023/03/06 05:05:28;;;;;;;;;;;;;;;-1.54;72.52;99664.04;105595;1286;71455;-73
2023/03/06 05:08:15;;;;;;;;;;;;;;;-1.52;72.51;99661.70;105535;1286;60341;-73
2023/03/06 05:11:01;;;;;;;;;;;;;;;-1.49;72.54;99660.40;105509;1287;63659;-73
2023/03/06 05:13:50;;;;;;;;;;;;;;;-1.47;72.60;99663.81;105500;1286;76613;-73
2023/03/06 05:16:36;;;;;;;;;;;;;;;-1.44;72.60;99661.48;106510;1286;67411;-73
2023/03/06 05:19:22;;;;;;;;;;;;;;;-1.41;72.55;99661.20;106228;1286;73043;-73
2023/03/06 05:22:08;;;;;;;;;;;;;;;-1.40;72.60;99662.08;105610;1283;62353;-73
2023/03/06 05:24:54;;;;;;;;;;;;;;;-1.37;72.66;99661.61;105603;1286;60315;-73
2023/03/06 05:27:41;;;;;;;;;;;;;;;-1.35;72.69;99658.77;105485;1286;72642;-73
2023/03/06 05:30:27;;;;;;;;;;;;;;;-1.33;72.69;99651.87;105603;1286;67239;-73
2023/03/06 05:33:13;;;;;;;;;;;;;;;-1.32;72.73;99646.98;105582;1286;71256;-74
2023/03/06 05:35:59;;;;;;;;;;;;;;;-1.30;72.73;99649.89;105535;1285;60293;-74
2023/03/06 05:38:45;;;;;;;;;;;;;;;-1.29;72.74;99647.21;105572;1286;60319;-74
2023/03/06 05:41:31;;;;;;;;;;;;;;;-1.27;72.83;99645.21;105518;1286;71512;-74
2023/03/06 05:44:17;;;;;;;;;;;;;;;-1.24;72.78;99642.73;105472;1286;67433;-74
2023/03/06 05:47:04;;;;;;;;;;;;;;;-1.22;72.82;99642.91;105519;1286;72376;-74
2023/03/06 05:49:50;;;;;;;;;;;;;;;-1.22;72.90;99643.95;105425;1286;60789;-74
2023/03/06 05:52:37;;;;;;;;;;;;;;;-1.19;72.93;99643.82;105042;1286;61449;-74
2023/03/06 05:55:23;;;;;;;;;;;;;;;-1.16;72.97;99643.87;105054;1286;75142;-73
2023/03/06 05:58:09;;;;;;;;;;;;;;;-1.13;73.00;99642.73;105346;1286;68866;-75
2023/03/06 06:00:55;;;;;;;;;;;;;;;-1.10;72.96;99646.49;105562;1288;71364;-74
2023/03/06 06:03:42;;;;;;;;;;;;;;;-1.08;72.99;99643.48;105501;1286;60360;-74
2023/03/06 06:06:28;;;;;;;;;;;;;;;-1.05;73.00;99639.13;105527;1289;60290;-74
2023/03/06 06:09:14;;;;;;;;;;;;;;;-1.02;73.10;99640.67;105564;1288;72424;-74
2023/03/06 06:12:01;;;;;;;;;;;;;;;-0.99;73.06;99638.18;105594;1285;68060;-74
2023/03/06 06:14:47;;;;;;;;;;;;;;;-0.95;73.15;99639.41;105473;1286;71218;-74
2023/03/06 06:17:33;;;;;;;;;;;;;;;-0.92;73.13;99633.86;105518;1292;60099;-74
2023/03/06 06:20:19;;;;;;;;;;;;;;;-0.89;73.14;99638.33;105531;1286;62495;-74
2023/03/06 06:23:06;;;;;;;;;;;;;;;-0.85;73.21;99636.52;105458;1286;72625;-73
2023/03/06 06:25:52;;;;;;;;;;;;;;;-0.82;73.21;99639.09;105425;1285;67182;-74
2023/03/06 06:28:38;;;;;;;;;;;;;;;-0.80;73.24;99637.60;105477;1286;74041;-74
2023/03/06 06:31:24;;;;;;;;;;;;;;;-0.77;73.25;99637.48;105395;1285;60038;-74
2023/03/06 06:34:10;;;;;;;;;;;;;;;-0.73;73.29;99641.08;105517;1286;59284;-74
2023/03/06 06:36:57;;;;;;;;;;;;;;;-0.70;73.23;99638.26;105521;1292;72944;-74
2023/03/06 06:39:43;;;;;;;;;;;;;;;-0.65;73.28;99637.96;105531;1286;67336;-74
2023/03/06 06:42:29;;;;;;;;;;;;;;;-0.61;73.28;99638.54;105445;1286;71230;-74
2023/03/06 06:45:15;;;;;;;;;;;;;;;-0.57;73.36;99640.27;105493;1286;60235;-74
2023/03/06 06:48:01;;;;;;;;;;;;;;;-0.54;73.40;99636.27;105406;1289;62054;-74
2023/03/06 06:50:53;;;;;;;;;;;;;;;-0.49;73.48;99631.90;105459;1286;73732;-75
2023/03/06 06:53:39;;;;;;;;;;;;;;;-0.46;73.41;99631.60;105414;1287;67284;-75
2023/03/06 06:56:26;;;;;;;;;;;;;;;-0.42;73.46;99632.15;105305;1286;74290;-75
2023/03/06 06:59:12;;;;;;;;;;;;;;;-0.37;73.41;99632.38;105415;1286;60293;-74
2023/03/06 07:01:58;;;;;;;;;;;;;;;-0.34;73.41;99631.23;105420;1286;60424;-75
2023/03/06 07:04:44;;;;;;;;;;;;;;;-0.29;73.43;99634.34;105417;1286;75081;-75
2023/03/06 07:07:32;;;;;;;;;;;;;;;-0.26;73.50;99634.38;105413;1286;68011;-75
2023/03/06 07:10:18;;;;;;;;;;;;;;;-0.23;73.51;99632.22;105442;1286;71337;-75
2023/03/06 07:13:05;;;;;;;;;;;;;;;-0.20;73.49;99632.58;105397;1289;60348;-75
2023/03/06 07:15:51;;;;;;;;;;;;;;;-0.17;73.50;99635.84;105428;1290;58596;-74
2023/03/06 07:18:37;;;;;;;;;;;;;;;-0.13;73.59;99631.48;105540;1286;73270;-75
2023/03/06 07:21:23;;;;;;;;;;;;;;;-0.09;73.58;99635.77;105422;1286;67833;-74
2023/03/06 07:24:09;;;;;;;;;;;;;;;-0.06;73.59;99632.92;105295;1289;72878;-74
2023/03/06 07:26:55;;;;;;;;;;;;;;;-0.01;73.67;99634.16;105332;1289;58791;-75
2023/03/06 07:29:42;;;;;;;;;;;;;;;0.03;73.64;99635.86;105310;1286;62711;-74
2023/03/06 07:32:28;;;;;;;;;;;;;;;0.08;73.66;99635.58;105394;1286;72423;-74
2023/03/06 07:35:18;;;;;;;;;;;;;;;0.15;73.71;99641.23;105212;1284;68456;-74
2023/03/06 07:38:04;;;;;;;;;;;;;;;0.20;73.70;99639.09;105235;1285;71571;-74
2023/03/06 07:40:50;;;;;;;;;;;;;;;0.23;73.66;99635.73;105087;1291;60574;-74
2023/03/06 07:43:36;;;;;;;;;;;;;;;0.26;73.62;99637.13;106014;1289;58796;-75
2023/03/06 07:46:22;;;;;;;;;;;;;;;0.29;73.65;99634.61;105989;1287;73815;-75
2023/03/06 07:49:08;;;;;;;;;;;;;;;0.34;73.67;99632.28;106085;1289;67128;-75
2023/03/06 07:51:54;;;;;;;;;;;;;;;0.37;73.66;99633.66;106024;1287;72966;-75
2023/03/06 07:54:40;;;;;;;;;;;;;;;0.42;73.70;99632.52;106181;1289;59189;-75
2023/03/06 07:57:26;;;;;;;;;;;;;;;0.46;73.66;99629.67;106082;1286;58624;-74
2023/03/06 08:00:14;;;;;;;;;;;;;;;0.49;73.64;99628.35;106140;1288;72557;-75
2023/03/06 08:03:00;;;;;;;;;;;;;;;0.51;73.67;99630.23;106059;1292;67339;-75
2023/03/06 08:05:46;;;;;;;;;;;;;;;0.53;73.64;99631.73;106073;1289;72507;-75
2023/03/06 08:08:33;;;;;;;;;;;;;;;0.50;73.68;99626.83;106087;1289;58335;-74
2023/03/06 08:11:20;;;;;;;;;;;;;;;0.51;73.72;99623.61;106061;1292;58736;-75
2023/03/06 08:14:06;;;;;;;;;;;;;;;0.50;73.61;99625.30;106156;1286;73788;-75
2023/03/06 08:16:55;;;;;;;;;;;;;;;0.50;73.76;99623.61;106378;1288;68950;-75
2023/03/06 08:19:41;;;;;;;;;;;;;;;0.54;73.71;99626.33;106367;1286;70381;-75
2023/03/06 08:22:27;;;;;;;;;;;;;;;0.57;73.82;99629.58;106389;1286;58294;-75
2023/03/06 08:25:13;;;;;;;;;;;;;;;0.61;73.80;99629.27;106478;1284;58754;-75
2023/03/06 08:27:58;;;;;;;;;;;;;;;0.65;73.78;99630.66;106425;1286;72376;-75
2023/03/06 08:30:44;;;;;;;;;;;;;;;0.72;73.81;99630.03;106356;1286;67267;-75
2023/03/06 08:33:30;;;;;;;;;;;;;;;0.77;73.84;99631.61;106244;1289;71351;-75
2023/03/06 08:36:16;;;;;;;;;;;;;;;0.82;73.80;99630.29;106401;1287;58525;-75
2023/03/06 08:39:03;;;;;;;;;;;;;;;0.85;73.72;99632.34;106396;1285;58660;-75
2023/03/06 08:41:49;;;;;;;;;;;;;;;0.87;73.82;99628.45;106365;1286;72486;-75
2023/03/06 08:44:35;;;;;;;;;;;;;;;0.91;73.79;99631.20;106461;1286;68127;-75
2023/03/06 08:47:21;;;;;;;;;;;;;;;0.93;73.68;99632.23;106308;1286;71403;-75
2023/03/06 08:50:08;;;;;;;;;;;;;;;0.92;73.63;99631.03;106191;1286;58563;-75
2023/03/06 08:52:54;;;;;;;;;;;;;;;0.88;73.63;99629.83;106378;1285;58607;-75
2023/03/06 08:55:39;;;;;;;;;;;;;;;0.84;73.60;99625.72;106414;1286;74066;-75
2023/03/06 08:58:25;;;;;;;;;;;;;;;0.87;73.84;99629.48;106371;1286;69515;-75
2023/03/06 09:01:12;;;;;;;;;;;;;;;0.97;73.89;99629.37;106400;1290;72060;-75
2023/03/06 09:03:59;;;;;;;;;;;;;;;1.07;73.82;99631.27;106359;1289;58277;-75
2023/03/06 09:06:45;;;;;;;;;;;;;;;1.13;73.74;99635.22;106392;1285;60599;-74
2023/03/06 09:09:31;;;;;;;;;;;;;;;1.16;73.68;99630.66;106371;1288;72282;-75
2023/03/06 09:12:17;;;;;;;;;;;;;;;1.20;73.77;99629.15;106280;1285;68551;-75
2023/03/06 09:15:03;;;;;;;;;;;;;;;1.23;73.71;99632.73;106352;1286;71425;-75
2023/03/06 09:17:50;;;;;;;;;;;;;;;1.29;73.76;99632.27;106290;1286;58649;-74
2023/03/06 09:20:36;;;;;;;;;;;;;;;1.32;73.68;99630.59;106281;1286;58680;-75
2023/03/06 09:23:22;;;;;;;;;;;;;;;1.38;73.68;99634.02;106258;1286;74121;-75
2023/03/06 09:26:09;;;;;;;;;;;;;;;1.41;73.64;99632.67;106345;1286;68343;-75
2023/03/06 09:28:55;;;;;;;;;;;;;;;1.44;73.64;99632.35;106396;1288;70699;-75
2023/03/06 09:31:41;;;;;;;;;;;;;;;1.47;73.56;99634.05;106394;1289;59147;-75
2023/03/06 09:34:27;;;;;;;;;;;;;;;1.51;73.58;99635.60;106311;1284;58317;-75
2023/03/06 09:37:13;;;;;;;;;;;;;;;1.54;73.67;99635.27;102485;1286;5063736;-75
2023/03/06 09:39:59;;;;;;;;;;;;;;;1.54;73.66;99636.98;106070;1292;72851;-75
2023/03/06 09:42:45;;;;;;;;;;;;;;;1.54;73.67;99635.28;106069;1288;58418;-75
2023/03/06 09:45:35;;;;;;;;;;;;;;;1.57;73.69;99635.27;106114;1292;59484;-75
2023/03/06 09:48:27;;;;;;;;;;;;;;;1.60;73.71;99638.52;106162;1292;73331;-75
2023/03/06 09:51:21;;;;;;;;;;;;;;;1.59;73.54;99636.30;105954;1292;67255;-75
2023/03/06 09:54:11;;;;;;;;;;;;;;;1.58;73.68;99643.41;106115;1289;72039;-75
2023/03/06 09:56:57;;;;;;;;;;;;;;;1.62;73.70;99647.52;105975;1289;58820;-75
2023/03/06 09:59:46;;;;;;;;;;;;;;;1.64;73.64;99644.13;106052;1289;59855;-75
2023/03/06 10:02:51;;;;;;;;;;;;;;;1.66;73.63;99644.64;106027;1289;73841;-75
2023/03/06 10:05:42;;;;;;;;;;;;;;;1.67;73.57;99637.86;105611;1288;68159;-75
2023/03/06 10:08:49;;;;;;;;;;;;;;;1.63;73.53;99641.57;105111;1290;72885;-75
2023/03/06 10:11:51;;;;;;;;;;;;;;;1.60;73.66;99642.24;105125;1289;60363;-74
2023/03/06 10:14:42;;;;;;;;;;;;;;;1.63;73.74;99639.87;104997;1289;60376;-74
2023/03/06 10:17:32;;;;;;;;;;;;;;;1.63;73.68;99638.17;104992;1294;73618;-74
2023/03/06 10:20:18;;;;;;;;;;;;;;;1.64;73.64;99632.91;105145;1288;67731;-74
2023/03/06 10:23:14;;;;;;;;;;;;;;;1.64;73.69;99629.18;105127;1289;71218;-74
2023/03/06 10:26:06;;;;;;;;;;;;;;;1.63;73.70;99628.84;105282;1290;60283;-74
2023/03/06 10:28:52;;;;;;;;;;;;;;;1.66;73.73;99631.73;105010;1292;59247;-74
2023/03/06 10:31:39;;;;;;;;;;;;;;;1.65;73.59;99633.60;105167;1288;72464;-74
2023/03/06 10:34:31;;;;;;;;;;;;;;;1.64;73.67;99635.30;105147;1295;66564;-75
2023/03/06 10:37:19;;;;;;;;;;;;;;;1.65;73.61;99629.86;105109;1289;71243;-75
2023/03/06 10:40:14;;;;;;;;;;;;;;;1.63;73.60;99629.69;105061;1292;59324;-74
2023/03/06 10:43:00;;;;;;;;;;;;;;;1.61;73.66;99628.83;105183;1288;58726;-74
2023/03/06 10:45:48;;;;;;;;;;;;;;;1.62;73.59;99626.96;105238;1292;73730;-74
2023/03/06 10:48:35;;;;;;;;;;;;;;;1.65;73.62;99630.02;105087;1290;67169;-74
2023/03/06 10:51:22;;;;;;;;;;;;;;;1.64;73.53;99629.02;105104;1291;72402;-74
2023/03/06 10:54:11;;;;;;;;;;;;;;;1.57;73.48;99626.95;105187;1292;60430;-74
2023/03/06 10:57:15;;;;;;;;;;;;;;;1.52;73.49;99625.42;105127;1289;59688;-74
2023/03/06 11:00:21;;;;;;;;;;;;;;;1.56;73.63;99622.87;105067;1289;73217;-76
2023/03/06 11:03:37;;;;;;;;;;;;;;;1.62;73.65;99625.60;105214;1289;68298;-76
2023/03/06 11:06:31;;;;;;;;;;;;;;;1.66;73.50;99624.77;104371;1300;72717;-76
2023/03/06 11:09:21;;;;;;;;;;;;;;;1.70;73.57;99625.80;104403;1299;60584;-74
2023/03/06 11:12:22;;;;;;;;;;;;;;;1.73;73.55;99625.13;104411;1300;59589;-74
2023/03/06 11:15:31;;;;;;;;;;;;;;;1.65;73.31;99621.37;104260;1300;72780;-74
2023/03/06 11:18:17;;;;;;;;;;;;;;;1.62;73.45;99618.30;103915;1309;68026;-74
2023/03/06 11:21:06;;;;;;;;;;;;;;;1.62;73.46;99617.27;103903;1304;71414;-74
2023/03/06 11:23:55;;;;;;;;;;;;;;;1.63;73.50;99613.89;103897;1305;58446;-74
2023/03/06 11:26:50;;;;;;;;;;;;;;;1.65;73.56;99609.65;103895;1302;60714;-74
2023/03/06 11:29:42;;;;;;;;;;;;;;;1.70;73.53;99607.45;104930;1305;74738;-74
2023/03/06 11:32:35;;;;;;;;;;;;;;;1.73;73.52;99607.81;104928;1305;68192;-75
2023/03/06 11:35:27;;;;;;;;;;;;;;;1.76;73.53;99607.14;104834;1306;71989;-75
2023/03/06 11:38:17;;;;;;;;;;;;;;;1.81;73.55;99604.95;104810;1305;58378;-74
2023/03/06 11:41:07;;;;;;;;;;;;;;;1.86;73.42;99599.19;104871;1306;58770;-74
2023/03/06 11:44:13;;;;;;;;;;;;;;;1.87;73.29;99602.08;105192;1298;75504;-74
2023/03/06 11:47:08;;;;;;;;;;;;;;;1.87;73.58;99602.58;104131;1301;68414;-74
2023/03/06 11:50:20;;;;;;;;;;;;;;;1.94;73.61;99601.92;104147;1305;75692;-74
2023/03/06 11:53:11;;;;;;;;;;;;;;;1.97;73.60;99602.11;100132;1311;5003189;-74
2023/03/06 11:56:17;;;;;;;;;;;;;;;2.03;73.63;99592.77;104779;1301;59562;-75
2023/03/06 11:59:26;;;;;;;;;;;;;;;2.07;73.61;99587.85;104533;1307;73715;-75
2023/03/06 12:02:31;;;;;;;;;;;;;;;2.16;73.52;99583.92;103890;1314;67542;-75
2023/03/06 12:05:32;;;;;;;;;;;;;;;2.28;73.76;99584.79;103851;1317;72433;-74
2023/03/06 12:08:21;;;;;;;;;;;;;;;2.42;73.74;99584.30;103835;1316;59453;-74
2023/03/06 12:11:27;;;;;;;;;;;;;;;2.49;73.52;99584.45;103862;1315;59861;-74
2023/03/06 12:14:30;;;;;;;;;;;;;;;2.51;73.62;99586.17;103257;1321;73913;-74
2023/03/06 12:17:31;;;;;;;;;;;;;;;2.54;73.58;99587.19;103283;1320;68074;-73
2023/03/06 12:20:37;;;;;;;;;;;;;;;2.54;73.54;99586.50;103283;1321;73373;-73
2023/03/06 12:23:29;;;;;;;;;;;;;;;2.54;73.56;99585.81;103245;1323;58979;-73
2023/03/06 12:26:34;;;;;;;;;;;;;;;2.54;73.52;99586.67;103458;1318;60691;-73
2023/03/06 12:29:23;;;;;;;;;;;;;;;2.54;73.56;99586.34;103686;1317;74705;-73
2023/03/06 12:32:29;;;;;;;;;;;;;;;2.56;73.58;99589.23;103696;1315;68572;-74
2023/03/06 12:35:39;;;;;;;;;;;;;;;2.55;73.52;99587.52;102629;1313;73269;-75
2023/03/06 12:38:37;;;;;;;;;;;;;;;2.57;73.57;99591.61;102971;1312;60394;-75
2023/03/06 12:41:55;;;;;;;;;;;;;;;2.58;73.59;99592.29;103211;1309;61000;-75
2023/03/06 12:44:55;;;;;;;;;;;;;;;2.58;73.62;99593.30;102732;1317;73169;-74
2023/03/06 12:47:43;;;;;;;;;;;;;;;2.56;73.53;99593.98;102795;1315;67356;-75
2023/03/06 12:50:35;;;;;;;;;;;;;;;2.54;73.52;99599.09;102936;1310;72850;-75
2023/03/06 12:53:44;;;;;;;;;;;;;;;2.52;73.64;99598.24;103335;1309;59825;-74
2023/03/06 12:56:32;;;;;;;;;;;;;;;2.47;73.60;99593.48;102969;1315;63233;-74
2023/03/06 12:59:35;;;;;;;;;;;;;;;2.45;73.60;99592.45;102801;1316;74324;-73
2023/03/06 13:02:34;;;;;;;;;;;;;;;2.44;73.58;99594.66;102587;1312;67725;-74
2023/03/06 13:05:39;;;;;;;;;;;;;;;2.45;73.64;99590.92;102390;1318;73974;-76
2023/03/06 13:08:35;;;;;;;;;;;;;;;2.45;73.62;99590.08;102704;1317;60409;-77
2023/03/06 13:11:27;;;;;;;;;;;;;;;2.46;73.61;99593.14;103049;1314;61529;-74
2023/03/06 13:14:39;;;;;;;;;;;;;;;2.48;73.62;99590.42;103565;1311;73866;-75
2023/03/06 13:17:27;;;;;;;;;;;;;;;2.50;73.57;99586.34;103573;1312;69456;-75
2023/03/06 13:20:13;;;;;;;;;;;;;;;2.54;73.67;99583.11;103681;1306;73515;-75
2023/03/06 13:23:17;;;;;;;;;;;;;;;2.55;73.62;99579.02;104085;1301;60467;-75
2023/03/06 13:26:08;;;;;;;;;;;;;;;2.56;73.53;99576.81;104126;1300;59519;-75
2023/03/06 13:28:56;;;;;;;;;;;;;;;2.55;73.50;99577.48;104043;1306;72476;-75
2023/03/06 13:31:42;;;;;;;;;;;;;;;2.53;73.40;99575.27;104097;1301;67605;-75
2023/03/06 13:34:41;;;;;;;;;;;;;;;2.51;73.49;99578.67;104446;1296;71555;-75
2023/03/06 13:37:27;;;;;;;;;;;;;;;2.52;73.49;99582.09;104544;1298;60287;-75
2023/03/06 13:40:20;;;;;;;;;;;;;;;2.51;73.50;99582.09;104577;1298;60289;-75
2023/03/06 13:43:27;;;;;;;;;;;;;;;2.49;73.43;99583.10;104434;1300;72588;-75
2023/03/06 13:46:23;;;;;;;;;;;;;;;2.43;73.41;99582.93;103876;1306;69132;-75
2023/03/06 13:49:09;;;;;;;;;;;;;;;2.40;73.38;99584.64;104055;1304;72997;-74
2023/03/06 13:52:07;;;;;;;;;;;;;;;2.37;73.35;99584.80;103938;1302;59292;-75
2023/03/06 13:55:02;;;;;;;;;;;;;;;2.38;73.45;99584.12;104311;1295;62336;-75
2023/03/06 13:58:27;;;;;;;;;;;;;;;2.38;73.49;99579.53;104585;1298;72736;-75
2023/03/06 14:01:39;;;;;;;;;;;;;;;2.39;73.50;99581.74;104063;1305;68031;-75
2023/03/06 14:04:48;;;;;;;;;;;;;;;2.40;73.50;99587.17;104088;1305;73763;-75
2023/03/06 14:07:54;;;;;;;;;;;;;;;2.39;73.47;99581.23;103817;1307;60542;-75
2023/03/06 14:11:04;;;;;;;;;;;;;;;2.39;73.46;99579.02;103678;1306;63188;-76
2023/03/06 14:14:15;;;;;;;;;;;;;;;2.39;73.48;99574.59;104056;1306;79131;-76
2023/03/06 14:17:42;;;;;;;;;;;;;;;2.38;73.42;99578.17;103993;1307;69031;-76
2023/03/06 14:20:55;;;;;;;;;;;;;;;2.39;73.41;99576.64;103753;1307;75644;-76
2023/03/06 14:23:42;;;;;;;;;;;;;;;2.40;73.46;99573.23;103253;1312;60386;-76
2023/03/06 14:26:39;;;;;;;;;;;;;;;2.41;73.31;99569.84;103350;1312;60529;-76
2023/03/06 14:29:26;;;;;;;;;;;;;;;2.42;73.34;99566.27;103328;1315;76782;-77
2023/03/06 14:32:14;;;;;;;;;;;;;;;2.40;73.19;99565.76;103551;1306;68819;-77
2023/03/06 14:35:01;;;;;;;;;;;;;;;2.39;73.35;99566.43;103707;1305;71300;-77
2023/03/06 14:37:49;;;;;;;;;;;;;;;2.40;73.24;99564.73;103742;1306;59838;-76